This is the latest recevied weather packets stored in our database for station/object KC1TWD. If no packets are shown the sender has not sent any weather packets the latest 10 day(s).
| Time | Temp. | Humidity | Pressure | Rain* | Wind** | Luminosity | Snow |
|---|---|---|---|---|---|---|---|
| 1778030776 | 16.67° C | 92% | 1008.4 hPa | 0 mm | - | - | - |
| 1778030472 | 16.67° C | 92% | 1008.6 hPa | 0 mm | - | - | - |
| 1778030170 | 16.67° C | 92% | 1008.4 hPa | 0 mm | - | - | - |
| 1778029866 | 16.67° C | 92% | 1008.4 hPa | 0 mm | - | - | - |
| 1778029566 | 16.67° C | 92% | 1008.5 hPa | 0 mm | - | - | - |
| 1778029262 | 16.67° C | 91% | 1008.3 hPa | 0 mm | - | - | - |
| 1778028959 | 16.67° C | 92% | 1008.2 hPa | 0 mm | - | - | - |
| 1778028655 | 16.67° C | 93% | 1008 hPa | 0 mm | - | - | - |
| 1778028352 | 16.67° C | 93% | 1008 hPa | 0 mm | - | - | - |
| 1778028049 | 16.67° C | 92% | 1008.4 hPa | 0 mm | - | - | - |
| 1778027745 | 16.67° C | 91% | 1008.2 hPa | 0 mm | - | - | - |
| 1778027442 | 16.67° C | 90% | 1008.2 hPa | 0 mm | - | - | - |
| 1778027138 | 17.22° C | 89% | 1008.1 hPa | 0 mm | - | - | - |
| 1778026834 | 17.22° C | 89% | 1007.8 hPa | 0 mm | - | - | - |
| 1778026530 | 17.78° C | 85% | 1007.7 hPa | 0 mm | - | - | - |
| 1778026227 | 18.33° C | 82% | 1007.7 hPa | 0 mm | - | - | - |
| 1778025925 | 19.44° C | 78% | 1007.2 hPa | 0 mm | - | - | - |
| 1778025622 | 20.56° C | 68% | 1007.7 hPa | 0 mm | - | - | - |
| 1778025320 | 20.56° C | 64% | 1007.7 hPa | 0 mm | - | - | - |
| 1778025016 | 20.56° C | 61% | 1007.3 hPa | 0 mm | - | - | - |
| 1778024714 | 20.56° C | 60% | 1007.1 hPa | 0 mm | - | - | - |
| 1778024411 | 21.11° C | 60% | 1006.9 hPa | 0 mm | - | - | - |
| 1778024108 | 21.11° C | 60% | 1006.9 hPa | 0 mm | - | - | - |
| 1778023805 | 21.11° C | 59% | 1006.7 hPa | 0 mm | - | - | - |
| 1778023503 | 21.67° C | 58% | 1006.7 hPa | 0 mm | - | - | - |
* Rain latest hour (hover to see other rain measurements)
** Current wind speed in m/s (hover to see current wind gust speed)